Paro, Bhutan
Current Conditions -  °F | °C
As of 11:50 PM on Saturday 20 Dec 2014 (Local Time) from VNKT Reporting Station
Few Clouds Few Clouds  
Wind Chill:   Ceiling: Unl
Heat Index:   Visibility: 4mi
Dew Point:   Wind: 0mph
Humidity: 81%   Direction: NA
Pressure: 30.12"   Gusts: NA
Location:  27.51°N, 89.36°E
Report Text: VNKT 201750Z 00000KT 6000 FEW020 07/04 Q1020 NOSIG
Loading
Personal Weather Stations






























Interactive Weather Map New forecast layout! Learn more

10-Day Weather Forecast

Advertisements
Track Severe Weather on mobile